createdAt,value
2023-12-16T00:00:47.792Z,99067.00
2023-12-16T00:03:14.801Z,99069.00
2023-12-16T00:05:42.006Z,99081.00
2023-12-16T00:08:08.923Z,99070.00
2023-12-16T00:10:35.851Z,99059.00
2023-12-16T00:13:03.089Z,99078.00
2023-12-16T00:15:30.377Z,99085.00
2023-12-16T00:17:57.253Z,99083.00
2023-12-16T00:20:24.330Z,99077.00
2023-12-16T00:22:51.174Z,99071.00
2023-12-16T00:25:19.092Z,99074.00
2023-12-16T00:27:46.740Z,99080.00
2023-12-16T00:30:13.838Z,99085.00
2023-12-16T00:32:41.385Z,99088.00
2023-12-16T00:35:08.770Z,99083.00
2023-12-16T00:37:36.899Z,99083.00
2023-12-16T00:40:05.365Z,99081.00
2023-12-16T00:42:32.255Z,99080.00
2023-12-16T00:44:59.071Z,99074.00
2023-12-16T00:47:26.849Z,99064.00
2023-12-16T00:49:53.993Z,99067.00
2023-12-16T00:52:20.958Z,99062.00
2023-12-16T00:54:48.422Z,99066.00
2023-12-16T00:57:15.421Z,99059.00
2023-12-16T00:59:42.488Z,99055.00
2023-12-16T01:02:09.318Z,99050.00
2023-12-16T01:04:36.233Z,99055.00
2023-12-16T01:07:03.645Z,99056.00
2023-12-16T01:09:30.675Z,99060.00
2023-12-16T01:11:57.783Z,99063.00
2023-12-16T01:14:24.604Z,99083.00
2023-12-16T01:16:51.407Z,99081.00
2023-12-16T01:19:18.413Z,99081.00
2023-12-16T01:21:46.044Z,99089.00
2023-12-16T01:24:13.309Z,99091.00
2023-12-16T01:26:40.218Z,99103.00
2023-12-16T01:29:07.034Z,99109.00
2023-12-16T01:31:34.546Z,99102.00
2023-12-16T01:34:01.585Z,99087.00
2023-12-16T01:36:28.483Z,99090.00
2023-12-16T01:38:55.416Z,99090.00
2023-12-16T01:41:22.334Z,99096.00
2023-12-16T01:43:49.191Z,99096.00
2023-12-16T01:46:16.572Z,99103.00
2023-12-16T01:48:44.174Z,99083.00
2023-12-16T01:51:11.296Z,99094.00
2023-12-16T01:53:40.782Z,99076.00
2023-12-16T01:56:09.423Z,99085.00
2023-12-16T01:58:39.009Z,99082.00
2023-12-16T02:01:06.411Z,99088.00
2023-12-16T02:03:34.186Z,99082.00
2023-12-16T02:06:01.870Z,99071.00
2023-12-16T02:08:28.723Z,99079.00
2023-12-16T02:10:55.645Z,99064.00
2023-12-16T02:13:25.232Z,99062.00
2023-12-16T02:15:52.284Z,99076.00
2023-12-16T02:18:19.318Z,99078.00
2023-12-16T02:20:47.482Z,99077.00
2023-12-16T02:23:18.675Z,99084.00
2023-12-16T02:25:46.282Z,99076.00
2023-12-16T02:28:13.250Z,99079.00
2023-12-16T02:30:40.225Z,99090.00
2023-12-16T02:33:07.181Z,99094.00
2023-12-16T02:35:34.800Z,99094.00
2023-12-16T02:38:01.952Z,99102.00
2023-12-16T02:40:29.126Z,99096.00
2023-12-16T02:42:56.287Z,99098.00
2023-12-16T02:45:23.361Z,99100.00
2023-12-16T02:47:50.265Z,99112.00
2023-12-16T02:50:17.426Z,99109.00
2023-12-16T02:52:44.325Z,99114.00
2023-12-16T02:55:11.208Z,99123.00
2023-12-16T02:57:38.312Z,99136.00
2023-12-16T03:00:06.215Z,99132.00
2023-12-16T03:02:33.083Z,99138.00
2023-12-16T03:04:59.897Z,99142.00
2023-12-16T03:07:26.837Z,99142.00
2023-12-16T03:09:53.724Z,99155.00
2023-12-16T03:12:20.890Z,99154.00
2023-12-16T03:14:47.798Z,99149.00
2023-12-16T03:17:16.829Z,99149.00
2023-12-16T03:19:43.788Z,99148.00
2023-12-16T03:22:10.809Z,99152.00
2023-12-16T03:24:37.695Z,99145.00
2023-12-16T03:27:04.811Z,99145.00
2023-12-16T03:29:32.383Z,99144.00
2023-12-16T03:31:59.523Z,99119.00
2023-12-16T03:34:27.191Z,99114.00
2023-12-16T03:36:54.165Z,99121.00
2023-12-16T03:39:21.286Z,99106.00
2023-12-16T03:41:48.086Z,99120.00
2023-12-16T03:44:14.922Z,99114.00
2023-12-16T03:46:41.782Z,99111.00
2023-12-16T03:49:08.784Z,99109.00
2023-12-16T03:51:35.654Z,99128.00
2023-12-16T03:54:02.459Z,99141.00
2023-12-16T03:56:29.391Z,99157.00
2023-12-16T03:58:56.194Z,99156.00
2023-12-16T04:01:24.470Z,99155.00
2023-12-16T04:03:51.574Z,99158.00
2023-12-16T04:06:18.466Z,99161.00
2023-12-16T04:08:45.270Z,99168.00
2023-12-16T04:11:12.152Z,99171.00
2023-12-16T04:13:38.966Z,99168.00
2023-12-16T04:16:06.407Z,99172.00
2023-12-16T04:18:33.953Z,99173.00
2023-12-16T04:21:02.694Z,99176.00
2023-12-16T04:23:29.933Z,99183.00
2023-12-16T04:25:56.973Z,99184.00
2023-12-16T04:28:23.811Z,99186.00
2023-12-16T04:30:50.705Z,99192.00
2023-12-16T04:33:17.805Z,99199.00
2023-12-16T04:35:44.656Z,99199.00
2023-12-16T04:38:11.509Z,99205.00
2023-12-16T04:40:38.370Z,99208.00
2023-12-16T04:43:05.294Z,99200.00
2023-12-16T04:45:32.219Z,99194.00
2023-12-16T04:47:59.114Z,99177.00
2023-12-16T04:50:26.075Z,99180.00
2023-12-16T04:52:52.888Z,99165.00
2023-12-16T04:55:19.701Z,99152.00
2023-12-16T04:57:46.747Z,99141.00
2023-12-16T05:00:15.079Z,99153.00
2023-12-16T05:02:42.541Z,99145.00
2023-12-16T05:05:09.526Z,99145.00
2023-12-16T05:07:38.886Z,99147.00
2023-12-16T05:10:11.395Z,99148.00
2023-12-16T05:12:41.381Z,99150.00
2023-12-16T05:15:08.899Z,99143.00
2023-12-16T05:17:36.035Z,99164.00
2023-12-16T05:20:03.477Z,99174.00
2023-12-16T05:22:34.953Z,99166.00
2023-12-16T05:25:05.830Z,99162.00
2023-12-16T05:27:32.701Z,99179.00
2023-12-16T05:30:01.955Z,99187.00
2023-12-16T05:32:29.708Z,99185.00
2023-12-16T05:34:57.597Z,99195.00
2023-12-16T05:37:24.655Z,99196.00
2023-12-16T05:39:52.542Z,99199.00
2023-12-16T05:42:20.165Z,99186.00
2023-12-16T05:44:46.999Z,99185.00
2023-12-16T05:47:13.808Z,99182.00
2023-12-16T05:49:40.736Z,99195.00
2023-12-16T05:52:07.708Z,99204.00
2023-12-16T05:54:34.728Z,99206.00
2023-12-16T05:57:01.629Z,99211.00
2023-12-16T05:59:29.175Z,99207.00
2023-12-16T06:01:56.520Z,99204.00
2023-12-16T06:04:23.822Z,99205.00
2023-12-16T06:06:50.674Z,99204.00
2023-12-16T06:09:18.450Z,99210.00
2023-12-16T06:11:45.373Z,99231.00
2023-12-16T06:14:12.208Z,99227.00
2023-12-16T06:16:39.111Z,99230.00
2023-12-16T06:19:06.110Z,99221.00
2023-12-16T06:21:33.064Z,99221.00
2023-12-16T06:23:59.909Z,99227.00
2023-12-16T06:26:27.357Z,99249.00
2023-12-16T06:28:54.522Z,99226.00
2023-12-16T06:31:22.166Z,99213.00
2023-12-16T06:33:49.342Z,99215.00
2023-12-16T06:36:16.394Z,99223.00
2023-12-16T06:38:43.460Z,99222.00
2023-12-16T06:41:10.394Z,99217.00
2023-12-16T06:43:37.276Z,99218.00
2023-12-16T06:46:04.511Z,99218.00
2023-12-16T06:48:31.556Z,99225.00
2023-12-16T06:50:59.137Z,99218.00
2023-12-16T06:53:26.425Z,99204.00
2023-12-16T06:55:54.312Z,99211.00
2023-12-16T06:58:22.003Z,99227.00
2023-12-16T07:00:49.584Z,99221.00
2023-12-16T07:03:17.222Z,99223.00
2023-12-16T07:05:44.190Z,99215.00
2023-12-16T07:08:13.112Z,99222.00
2023-12-16T07:10:40.231Z,99197.00
2023-12-16T07:13:07.084Z,99196.00
2023-12-16T07:15:34.003Z,99213.00
2023-12-16T07:18:00.860Z,99208.00
2023-12-16T07:20:27.676Z,99223.00
2023-12-16T07:22:54.520Z,99221.00
2023-12-16T07:25:22.096Z,99232.00
2023-12-16T07:27:49.194Z,99231.00
2023-12-16T07:30:17.514Z,99222.00
2023-12-16T07:32:44.500Z,99235.00
2023-12-16T07:35:14.521Z,99234.00
2023-12-16T07:37:42.719Z,99231.00
2023-12-16T07:40:11.572Z,99229.00
2023-12-16T07:42:41.807Z,99241.00
2023-12-16T07:45:09.909Z,99255.00
2023-12-16T07:47:36.943Z,99258.00
2023-12-16T07:50:04.838Z,99265.00
2023-12-16T07:52:32.307Z,99267.00
2023-12-16T07:54:59.345Z,99269.00
2023-12-16T07:57:26.384Z,99248.00
2023-12-16T07:59:54.761Z,99259.00
2023-12-16T08:02:21.895Z,99257.00
2023-12-16T08:04:50.382Z,99249.00
2023-12-16T08:07:17.283Z,99262.00
2023-12-16T08:09:44.170Z,99253.00
2023-12-16T08:12:11.106Z,99260.00
2023-12-16T08:14:38.476Z,99263.00
2023-12-16T08:17:05.391Z,99261.00
2023-12-16T08:19:32.340Z,99269.00
2023-12-16T08:22:01.328Z,99264.00
2023-12-16T08:24:30.663Z,99271.00
2023-12-16T08:26:57.784Z,99270.00
2023-12-16T08:29:24.655Z,99269.00
2023-12-16T08:31:51.579Z,99267.00
2023-12-16T08:34:19.979Z,99268.00
2023-12-16T08:36:49.874Z,99278.00
2023-12-16T08:39:17.074Z,99292.00
2023-12-16T08:41:44.660Z,99294.00
2023-12-16T08:44:11.615Z,99311.00
2023-12-16T08:46:42.619Z,99313.00
2023-12-16T08:49:09.710Z,99317.00
2023-12-16T08:51:37.168Z,99329.00
2023-12-16T08:54:04.146Z,99336.00
2023-12-16T08:56:31.353Z,99345.00
2023-12-16T08:58:58.267Z,99347.00
2023-12-16T09:01:25.161Z,99346.00
2023-12-16T09:03:52.253Z,99341.00
2023-12-16T09:06:19.289Z,99339.00
2023-12-16T09:08:46.172Z,99345.00
2023-12-16T09:11:13.178Z,99341.00
2023-12-16T09:13:40.162Z,99357.00
2023-12-16T09:16:07.396Z,99353.00
2023-12-16T09:18:38.385Z,99362.00
2023-12-16T09:21:05.666Z,99367.00
2023-12-16T09:23:32.566Z,99368.00
2023-12-16T09:25:59.407Z,99374.00
2023-12-16T09:28:26.269Z,99381.00
2023-12-16T09:30:53.174Z,99384.00
2023-12-16T09:33:20.534Z,99376.00
2023-12-16T09:35:47.630Z,99378.00
2023-12-16T09:38:14.500Z,99374.00
2023-12-16T09:40:42.392Z,99352.00
2023-12-16T09:43:18.755Z,99354.00
2023-12-16T09:45:50.059Z,99350.00
2023-12-16T09:48:18.289Z,99330.00
2023-12-16T09:50:46.065Z,99323.00
2023-12-16T09:53:13.695Z,99332.00
2023-12-16T09:55:41.716Z,99340.00
2023-12-16T09:58:12.702Z,99343.00
2023-12-16T10:00:47.297Z,99328.00
2023-12-16T10:03:18.246Z,99326.00
2023-12-16T10:05:46.690Z,99315.00
2023-12-16T10:08:14.081Z,99317.00
2023-12-16T10:10:41.426Z,99313.00
2023-12-16T10:13:08.837Z,99317.00
2023-12-16T10:15:36.052Z,99329.00
2023-12-16T10:18:04.547Z,99338.00
2023-12-16T10:20:32.173Z,99331.00
2023-12-16T10:23:05.163Z,99328.00
2023-12-16T10:25:32.941Z,99333.00
2023-12-16T10:28:02.014Z,99328.00
2023-12-16T10:30:29.605Z,99313.00
2023-12-16T10:32:57.704Z,99311.00
2023-12-16T10:35:24.958Z,99313.00
2023-12-16T10:37:55.753Z,99309.00
2023-12-16T10:40:27.349Z,99321.00
2023-12-16T10:42:54.606Z,99326.00
2023-12-16T10:45:21.985Z,99317.00
2023-12-16T10:47:51.726Z,99326.00
2023-12-16T10:50:22.133Z,99309.00
2023-12-16T10:52:54.357Z,99299.00
2023-12-16T10:55:33.110Z,99300.00
2023-12-16T10:58:22.643Z,99309.00
2023-12-16T11:00:53.254Z,99281.00
2023-12-16T11:03:35.124Z,99279.00
2023-12-16T11:06:09.126Z,99281.00
2023-12-16T11:08:37.320Z,99288.00
2023-12-16T11:11:04.891Z,99289.00
2023-12-16T11:13:32.561Z,99277.00
2023-12-16T11:16:18.638Z,99277.00
2023-12-16T11:18:50.511Z,99285.00
2023-12-16T11:21:20.367Z,99281.00
2023-12-16T11:23:47.729Z,99271.00
2023-12-16T11:26:17.173Z,99271.00
2023-12-16T11:28:44.103Z,99259.00
2023-12-16T11:31:11.992Z,99259.00
2023-12-16T11:33:46.812Z,99263.00
2023-12-16T11:36:15.399Z,99250.00
2023-12-16T11:38:45.380Z,99242.00
2023-12-16T11:41:38.831Z,99232.00
2023-12-16T11:44:05.729Z,99236.00
2023-12-16T11:46:42.389Z,99242.00
2023-12-16T11:49:17.810Z,99245.00
2023-12-16T11:51:45.737Z,99240.00
2023-12-16T11:54:13.572Z,99235.00
2023-12-16T11:56:40.826Z,99224.00
2023-12-16T11:59:09.215Z,99238.00
2023-12-16T12:01:36.901Z,99224.00
2023-12-16T12:04:05.750Z,99225.00
2023-12-16T12:06:33.827Z,99220.00
2023-12-16T12:09:01.369Z,99223.00
2023-12-16T12:11:28.326Z,99224.00
2023-12-16T12:13:57.443Z,99230.00
2023-12-16T12:16:25.140Z,99223.00
2023-12-16T12:18:52.300Z,99230.00
2023-12-16T12:21:19.259Z,99227.00
2023-12-16T12:23:46.098Z,99226.00
2023-12-16T12:26:13.092Z,99226.00
2023-12-16T12:28:40.029Z,99230.00
2023-12-16T12:31:09.398Z,99240.00
2023-12-16T12:33:37.123Z,99236.00
2023-12-16T12:36:05.099Z,99231.00
2023-12-16T12:38:34.466Z,99229.00
2023-12-16T12:41:07.358Z,99231.00
2023-12-16T12:43:36.660Z,99233.00
2023-12-16T12:46:13.747Z,99223.00
2023-12-16T12:48:52.773Z,99212.00
2023-12-16T12:51:19.798Z,99203.00
2023-12-16T12:54:00.219Z,99207.00
2023-12-16T12:56:29.402Z,99202.00
2023-12-16T12:58:58.238Z,99198.00
2023-12-16T13:01:25.310Z,99196.00
2023-12-16T13:03:52.320Z,99183.00
2023-12-16T13:06:19.390Z,99189.00
2023-12-16T13:08:46.339Z,99176.00
2023-12-16T13:11:13.191Z,99176.00
2023-12-16T13:13:40.049Z,99172.00
2023-12-16T13:16:09.195Z,99177.00
2023-12-16T13:18:42.042Z,99163.00
2023-12-16T13:21:12.574Z,99176.00
2023-12-16T13:23:39.623Z,99166.00
2023-12-16T13:26:13.544Z,99155.00
2023-12-16T13:28:42.360Z,99160.00
2023-12-16T13:31:10.027Z,99161.00
2023-12-16T13:33:37.684Z,99158.00
2023-12-16T13:36:32.437Z,99154.00
2023-12-16T13:38:52.445Z,99145.00
2023-12-16T13:41:19.465Z,99140.00
2023-12-16T13:43:48.506Z,99138.00
2023-12-16T13:46:15.528Z,99136.00
2023-12-16T13:48:43.638Z,99120.00
2023-12-16T13:51:10.532Z,99133.00
2023-12-16T13:53:37.419Z,99132.00
2023-12-16T13:56:04.779Z,99120.00
2023-12-16T13:58:31.652Z,99126.00
2023-12-16T14:00:59.219Z,99128.00
2023-12-16T14:03:26.149Z,99130.00
2023-12-16T14:05:53.242Z,99138.00
2023-12-16T14:08:20.098Z,99135.00
2023-12-16T14:10:48.444Z,99134.00
2023-12-16T14:13:15.286Z,99139.00
2023-12-16T14:15:42.500Z,99126.00
2023-12-16T14:18:09.457Z,99135.00
2023-12-16T14:20:36.396Z,99125.00
2023-12-16T14:23:03.283Z,99123.00
2023-12-16T14:25:30.169Z,99115.00
2023-12-16T14:27:57.009Z,99121.00
2023-12-16T14:30:24.511Z,99128.00
2023-12-16T14:32:51.604Z,99129.00
2023-12-16T14:35:18.635Z,99123.00
2023-12-16T14:37:45.546Z,99126.00
2023-12-16T14:40:13.068Z,99122.00
2023-12-16T14:42:40.043Z,99132.00
2023-12-16T14:45:07.612Z,99135.00
2023-12-16T14:47:35.019Z,99127.00
2023-12-16T14:50:01.974Z,99126.00
2023-12-16T14:52:29.045Z,99123.00
2023-12-16T14:54:57.022Z,99127.00
2023-12-16T14:57:23.886Z,99128.00
2023-12-16T14:59:50.812Z,99122.00
2023-12-16T15:02:17.642Z,99113.00
2023-12-16T15:04:46.284Z,99118.00
2023-12-16T15:07:13.401Z,99113.00
2023-12-16T15:09:40.506Z,99109.00
2023-12-16T15:12:07.662Z,99115.00
2023-12-16T15:14:34.698Z,99113.00
2023-12-16T15:17:01.530Z,99113.00
2023-12-16T15:19:28.473Z,99112.00
2023-12-16T15:21:56.082Z,99106.00
2023-12-16T15:24:22.950Z,99106.00
2023-12-16T15:26:49.891Z,99108.00
2023-12-16T15:29:16.840Z,99097.00
2023-12-16T15:31:47.398Z,99106.00
2023-12-16T15:34:14.458Z,99101.00
2023-12-16T15:36:42.956Z,99102.00
2023-12-16T15:39:12.328Z,99098.00
2023-12-16T15:41:40.243Z,99101.00
2023-12-16T15:44:08.596Z,99103.00
2023-12-16T15:46:41.916Z,99096.00
2023-12-16T15:49:10.392Z,99084.00
2023-12-16T15:51:38.543Z,99091.00
2023-12-16T15:54:06.191Z,99097.00
2023-12-16T15:56:33.838Z,99090.00
2023-12-16T15:59:00.774Z,99100.00
2023-12-16T16:01:27.747Z,99098.00
2023-12-16T16:03:55.256Z,99089.00
2023-12-16T16:06:22.128Z,99096.00
2023-12-16T16:08:48.990Z,99101.00
2023-12-16T16:11:16.046Z,99096.00
2023-12-16T16:13:42.860Z,99095.00
2023-12-16T16:16:10.205Z,99100.00
2023-12-16T16:18:38.247Z,99099.00
2023-12-16T16:21:05.496Z,99102.00
2023-12-16T16:23:32.415Z,99105.00
2023-12-16T16:25:59.288Z,99108.00
2023-12-16T16:28:26.134Z,99102.00
2023-12-16T16:30:53.689Z,99103.00
2023-12-16T16:33:20.718Z,99112.00
2023-12-16T16:35:47.733Z,99116.00
2023-12-16T16:38:14.607Z,99117.00
2023-12-16T16:40:41.469Z,99114.00
2023-12-16T16:43:08.334Z,99115.00
2023-12-16T16:45:35.286Z,99119.00
2023-12-16T16:48:05.064Z,99117.00
2023-12-16T16:50:32.047Z,99126.00
2023-12-16T16:53:00.153Z,99132.00
2023-12-16T16:55:27.074Z,99119.00
2023-12-16T16:57:53.934Z,99116.00
2023-12-16T17:00:24.226Z,99123.00
2023-12-16T17:02:51.648Z,99133.00
2023-12-16T17:05:20.621Z,99152.00
2023-12-16T17:07:48.686Z,99147.00
2023-12-16T17:10:15.511Z,99152.00
2023-12-16T17:12:42.985Z,99150.00
2023-12-16T17:15:10.411Z,99154.00
2023-12-16T17:17:37.534Z,99149.00
2023-12-16T17:20:05.457Z,99156.00
2023-12-16T17:22:32.335Z,99151.00
2023-12-16T17:25:00.724Z,99143.00
2023-12-16T17:27:27.592Z,99150.00
2023-12-16T17:29:54.436Z,99152.00
2023-12-16T17:32:21.350Z,99146.00
2023-12-16T17:34:48.483Z,99131.00
2023-12-16T17:37:15.333Z,99130.00
2023-12-16T17:39:42.374Z,99139.00
2023-12-16T17:42:09.918Z,99137.00
2023-12-16T17:44:37.473Z,99141.00
2023-12-16T17:47:05.120Z,99141.00
2023-12-16T17:49:32.102Z,99135.00
2023-12-16T17:51:59.126Z,99135.00
2023-12-16T17:54:26.093Z,99123.00
2023-12-16T17:56:53.070Z,99130.00
2023-12-16T17:59:19.950Z,99139.00
2023-12-16T18:01:47.619Z,99125.00
2023-12-16T18:04:14.832Z,99123.00
2023-12-16T18:06:41.963Z,99127.00
2023-12-16T18:09:09.188Z,99117.00
2023-12-16T18:11:38.760Z,99123.00
2023-12-16T18:14:08.596Z,99119.00
2023-12-16T18:16:35.806Z,99122.00
2023-12-16T18:19:02.747Z,99128.00
2023-12-16T18:21:29.652Z,99131.00
2023-12-16T18:23:57.075Z,99125.00
2023-12-16T18:26:24.480Z,99137.00
2023-12-16T18:28:51.308Z,99131.00
2023-12-16T18:31:19.248Z,99128.00
2023-12-16T18:33:46.841Z,99131.00
2023-12-16T18:36:14.116Z,99137.00
2023-12-16T18:38:44.200Z,99147.00
2023-12-16T18:41:12.536Z,99146.00
2023-12-16T18:43:44.121Z,99161.00
2023-12-16T18:46:11.020Z,99163.00
2023-12-16T18:48:38.323Z,99150.00
2023-12-16T18:51:05.476Z,99165.00
2023-12-16T18:53:32.383Z,99169.00
2023-12-16T18:56:01.806Z,99168.00
2023-12-16T18:58:29.800Z,99169.00
2023-12-16T19:00:56.820Z,99168.00
2023-12-16T19:03:23.868Z,99176.00
2023-12-16T19:05:50.770Z,99182.00
2023-12-16T19:08:18.776Z,99194.00
2023-12-16T19:10:45.608Z,99188.00
2023-12-16T19:13:12.428Z,99177.00
2023-12-16T19:15:39.271Z,99180.00
2023-12-16T19:18:06.207Z,99194.00
2023-12-16T19:20:33.431Z,99183.00
2023-12-16T19:23:00.315Z,99204.00
2023-12-16T19:25:27.280Z,99191.00
2023-12-16T19:27:54.140Z,99186.00
2023-12-16T19:30:21.149Z,99193.00
2023-12-16T19:32:48.144Z,99187.00
2023-12-16T19:35:15.216Z,99194.00
2023-12-16T19:37:42.486Z,99192.00
2023-12-16T19:40:09.832Z,99199.00
2023-12-16T19:42:36.646Z,99186.00
2023-12-16T19:45:05.732Z,99187.00
2023-12-16T19:47:32.750Z,99180.00
2023-12-16T19:49:59.697Z,99181.00
2023-12-16T19:52:26.636Z,99188.00
2023-12-16T19:54:53.464Z,99175.00
2023-12-16T19:57:20.459Z,99165.00
2023-12-16T19:59:47.392Z,99183.00
2023-12-16T20:02:14.269Z,99182.00
2023-12-16T20:04:41.484Z,99176.00
2023-12-16T20:07:08.462Z,99180.00
2023-12-16T20:09:35.938Z,99184.00
2023-12-16T20:12:04.575Z,99178.00
2023-12-16T20:14:33.996Z,99175.00
2023-12-16T20:17:01.279Z,99176.00
2023-12-16T20:19:28.210Z,99169.00
2023-12-16T20:21:57.323Z,99176.00
2023-12-16T20:24:24.306Z,99173.00
2023-12-16T20:26:54.975Z,99182.00
2023-12-16T20:29:25.058Z,99181.00
2023-12-16T20:31:52.970Z,99172.00
2023-12-16T20:34:20.216Z,99179.00
2023-12-16T20:36:48.495Z,99164.00
2023-12-16T20:39:34.214Z,99164.00
2023-12-16T20:42:01.120Z,99148.00
2023-12-16T20:44:27.983Z,99141.00
2023-12-16T20:46:55.145Z,99149.00
2023-12-16T20:49:22.334Z,99154.00
2023-12-16T20:51:55.251Z,99164.00
2023-12-16T20:54:22.056Z,99157.00
2023-12-16T20:56:48.964Z,99161.00
2023-12-16T20:59:15.840Z,99154.00
2023-12-16T21:01:42.657Z,99148.00
2023-12-16T21:04:09.675Z,99151.00
2023-12-16T21:06:36.648Z,99155.00
2023-12-16T21:09:05.540Z,99167.00
2023-12-16T21:11:32.583Z,99167.00
2023-12-16T21:13:59.446Z,99167.00
2023-12-16T21:16:26.343Z,99166.00
2023-12-16T21:18:53.333Z,99159.00
2023-12-16T21:21:20.459Z,99146.00
2023-12-16T21:23:47.396Z,99159.00
2023-12-16T21:26:15.799Z,99157.00
2023-12-16T21:28:43.737Z,99138.00
2023-12-16T21:31:11.170Z,99139.00
2023-12-16T21:33:38.097Z,99151.00
2023-12-16T21:36:05.512Z,99159.00
2023-12-16T21:38:32.391Z,99165.00
2023-12-16T21:40:59.176Z,99164.00
2023-12-16T21:43:28.404Z,99160.00
2023-12-16T21:45:55.248Z,99165.00
2023-12-16T21:48:22.307Z,99170.00
2023-12-16T21:50:49.283Z,99160.00
2023-12-16T21:53:17.750Z,99170.00
2023-12-16T21:55:44.633Z,99167.00
2023-12-16T21:58:11.462Z,99166.00
2023-12-16T22:00:38.383Z,99161.00
2023-12-16T22:03:05.341Z,99148.00
2023-12-16T22:05:32.329Z,99146.00
2023-12-16T22:07:59.176Z,99148.00
2023-12-16T22:10:26.056Z,99147.00
2023-12-16T22:12:53.548Z,99144.00
2023-12-16T22:15:20.464Z,99147.00
2023-12-16T22:17:47.450Z,99152.00
2023-12-16T22:20:14.359Z,99158.00
2023-12-16T22:22:41.195Z,99159.00
2023-12-16T22:25:08.957Z,99150.00
2023-12-16T22:27:35.988Z,99147.00
2023-12-16T22:30:04.455Z,99133.00
2023-12-16T22:32:31.579Z,99134.00
2023-12-16T22:34:58.463Z,99153.00
2023-12-16T22:37:25.521Z,99155.00
2023-12-16T22:39:52.350Z,99161.00
2023-12-16T22:42:19.369Z,99159.00
2023-12-16T22:44:47.603Z,99167.00
2023-12-16T22:47:15.348Z,99164.00
2023-12-16T22:49:42.408Z,99160.00
2023-12-16T22:52:09.493Z,99137.00
2023-12-16T22:54:36.344Z,99145.00
2023-12-16T22:57:03.316Z,99149.00
2023-12-16T22:59:30.195Z,99149.00
2023-12-16T23:01:57.103Z,99139.00
2023-12-16T23:04:23.915Z,99138.00
2023-12-16T23:06:50.773Z,99127.00
2023-12-16T23:09:18.442Z,99128.00
2023-12-16T23:11:45.547Z,99135.00
2023-12-16T23:14:12.409Z,99144.00
2023-12-16T23:16:39.235Z,99146.00
2023-12-16T23:19:06.153Z,99154.00
2023-12-16T23:21:33.098Z,99148.00
2023-12-16T23:24:00.594Z,99160.00
2023-12-16T23:26:27.486Z,99171.00
2023-12-16T23:28:54.333Z,99189.00
2023-12-16T23:31:21.176Z,99192.00
2023-12-16T23:33:48.240Z,99196.00
2023-12-16T23:36:15.440Z,99203.00
2023-12-16T23:38:42.444Z,99209.00
2023-12-16T23:41:17.008Z,99210.00
2023-12-16T23:43:44.579Z,99210.00
2023-12-16T23:46:14.223Z,99211.00
2023-12-16T23:48:45.794Z,99198.00
2023-12-16T23:51:13.719Z,99210.00
2023-12-16T23:53:46.998Z,99200.00
2023-12-16T23:56:15.167Z,99196.00
2023-12-16T23:58:42.416Z,99208.00
